CYZP

Sandspit Airport

Sandspit, , Canada
TAF CYZP 161838Z 1619/1707 26012KT P6SM FEW020 BKN120 FM170000 24010KT P6SM BKN030 OVC080 TEMPO 1700/1707 5SM -RA BR OVC020 RMK FCST BASED ON AUTO OBS. NXT FCST BY 170100Z
Issued Valid From Valid To
Jul-16 @ 18:38 UTC
(2 hours ago)
Jul-16 @ 19:00 UTC
(an hour ago)
Jul-17 @ 07:00 UTC
(in 11 hours)
Jul-16 @ 19:00 to Jul-17 @ 00:00
TAF CYZP 161838Z 1619/1707 26012KT P6SM FEW020 BKN120
Wind Visibility Clouds
260° at 12 knots Greater than 6 miles
  • Few at 2,000' AGL
  • Broken at 12,000' AGL
Temporary Jul-17 @ 00:00 to Jul-17 @ 07:00
TEMPO 1700/1707 5SM -RA BR OVC020 RMK FCST BASED ON AUTO OBS. NXT FCST BY 170100Z
Visibility Clouds Conditions
5 miles
  • Overcast at 2,000' AGL
  • Light Rain
  • Mist
From Jul-17 @ 00:00 to Jul-17 @ 07:00
FM170000 24010KT P6SM BKN030 OVC080
Wind Visibility Clouds
240° at 10 knots Greater than 6 miles
  • Broken at 3,000' AGL
  • Overcast at 8,000' AGL
TAF CYZP 161838Z 1619/1707 26012KT P6SM FEW020 BKN120 FM170000 24010KT P6SM BKN030 OVC080 TEMPO 1700/1707 5SM -RA BR OVC020 RMK FCST BASED ON AUTO OBS. NXT FCST BY 170100Z
Issued Jul-16 @ 18:38 UTC
(2 hours ago)
Valid From Jul-16 @ 19:00 UTC
(an hour ago)
Valid To Jul-17 @ 07:00 UTC
(in 11 hours)
Jul-16 @ 19:00 - Jul-17 @ 00:00
Wind Visibility
260° at 12 knots Greater than 6 miles
Clouds
  • Few at 2,000' AGL
  • Broken at 12,000' AGL
Temporary Jul-17 @ 00:00 - Jul-17 @ 07:00
Clouds
  • Overcast at 2,000' AGL
Conditions
  • Light Rain
  • Mist
From Jul-17 @ 00:00 - Jul-17 @ 07:00
Wind Visibility
240° at 10 knots Greater than 6 miles
Clouds
  • Broken at 3,000' AGL
  • Overcast at 8,000' AGL